Time;durP1;ratioP1;P1;durP2;ratioP2;P2;SDS_P1;SDS_P2;PMS_P1;PMS_P2;Temp;Humidity;BMP_temperature;BMP_pressure;BME280_temperature;BME280_humidity;BME280_pressure;Samples;Min_cycle;Max_cycle;Signal;HPM_P1;HPM_P2
2022/03/04 00:01:20;;;;;;;12.43;7.05;;;2.40;99.90;;;;;;5032839;28;20041;-69
2022/03/04 00:03:47;;;;;;;14.32;7.68;;;3.20;99.90;;;;;;5033994;28;20084;-69
2022/03/04 00:06:12;;;;;;;13.63;7.22;;;3.00;99.90;;;;;;5032259;28;20084;-68
2022/03/04 00:08:38;;;;;;;10.35;6.63;;;2.30;99.90;;;;;;5032978;28;20081;-68
2022/03/04 00:11:04;;;;;;;13.48;7.47;;;2.60;99.90;;;;;;5033893;28;20056;-69
2022/03/04 00:13:31;;;;;;;17.73;7.95;;;2.80;99.90;;;;;;5033559;28;20074;-68
2022/03/04 00:15:57;;;;;;;11.52;7.32;;;2.30;99.90;;;;;;5033610;28;20046;-69
2022/03/04 00:18:24;;;;;;;14.18;7.53;;;3.50;99.90;;;;;;5032762;28;20580;-68
2022/03/04 00:20:49;;;;;;;13.18;7.53;;;2.40;99.90;;;;;;5033939;28;20405;-68
2022/03/04 00:23:15;;;;;;;12.05;7.35;;;3.70;99.90;;;;;;5033717;28;20049;-69
2022/03/04 00:25:41;;;;;;;12.55;6.88;;;2.40;99.90;;;;;;5033762;28;20041;-68
2022/03/04 00:28:07;;;;;;;13.00;7.63;;;2.90;99.90;;;;;;5032504;28;20121;-68
2022/03/04 00:30:33;;;;;;;12.30;7.45;;;2.30;99.90;;;;;;5033631;28;20041;-68
2022/03/04 00:32:58;;;;;;;15.05;7.30;;;3.20;99.90;;;;;;5034397;28;20045;-69
2022/03/04 00:35:24;;;;;;;16.02;8.50;;;2.20;99.90;;;;;;5033029;28;20045;-68
2022/03/04 00:37:50;;;;;;;13.15;7.70;;;2.20;99.90;;;;;;5033369;28;20050;-68
2022/03/04 00:40:16;;;;;;;15.05;8.65;;;2.20;99.90;;;;;;5033547;28;20068;-68
2022/03/04 00:42:43;;;;;;;14.73;8.00;;;2.70;99.90;;;;;;5032333;28;20055;-69
2022/03/04 00:45:09;;;;;;;15.88;8.27;;;2.90;99.90;;;;;;5015960;28;20336;-68
2022/03/04 00:47:35;;;;;;;14.75;8.68;;;2.10;99.90;;;;;;5032032;28;20489;-69
2022/03/04 00:50:02;;;;;;;13.40;8.15;;;2.20;99.90;;;;;;5033447;28;20053;-68
2022/03/04 00:52:28;;;;;;;12.82;8.20;;;3.50;99.90;;;;;;5032255;28;20117;-68
2022/03/04 00:54:54;;;;;;;15.70;7.80;;;2.20;99.90;;;;;;5034821;28;20053;-69
2022/03/04 00:57:20;;;;;;;13.32;7.70;;;2.30;99.90;;;;;;5037346;28;20099;-69
2022/03/04 00:59:45;;;;;;;14.90;8.68;;;2.00;99.90;;;;;;5037352;28;20037;-69
2022/03/04 01:02:11;;;;;;;15.88;9.00;;;2.00;99.90;;;;;;5036352;28;20128;-68
2022/03/04 01:04:37;;;;;;;15.18;8.68;;;2.00;99.90;;;;;;5035704;28;20041;-69
2022/03/04 01:07:03;;;;;;;15.25;8.70;;;2.00;99.90;;;;;;5036332;28;20061;-68
2022/03/04 01:09:29;;;;;;;12.88;7.72;;;2.10;99.90;;;;;;5036366;28;20056;-68
2022/03/04 01:11:54;;;;;;;13.80;7.78;;;2.10;99.90;;;;;;5036162;28;20045;-69
2022/03/04 01:14:21;;;;;;;15.23;8.93;;;2.50;99.90;;;;;;5037425;28;20107;-68
2022/03/04 01:16:47;;;;;;;16.70;9.18;;;3.50;99.90;;;;;;5037530;28;20045;-69
2022/03/04 01:19:12;;;;;;;16.00;8.90;;;2.20;99.90;;;;;;5036042;28;20107;-68
2022/03/04 01:21:39;;;;;;;17.25;8.38;;;2.00;99.90;;;;;;5037039;28;20050;-68
2022/03/04 01:24:06;;;;;;;18.98;8.95;;;2.30;99.90;;;;;;5036967;28;20061;-69
2022/03/04 01:26:32;;;;;;;18.25;8.95;;;2.00;99.90;;;;;;5035713;28;20038;-69
2022/03/04 01:28:58;;;;;;;15.65;8.07;;;2.80;99.90;;;;;;5036901;28;20441;-69
2022/03/04 01:31:24;;;;;;;16.98;8.57;;;3.20;99.90;;;;;;5035731;28;20100;-69
2022/03/04 01:33:50;;;;;;;18.05;8.65;;;2.20;99.90;;;;;;5035845;28;20049;-69
2022/03/04 01:36:16;;;;;;;14.85;9.75;;;2.00;99.90;;;;;;5036179;28;20041;-68
2022/03/04 01:38:41;;;;;;;14.77;7.72;;;2.40;99.90;;;;;;5036685;28;20045;-67
2022/03/04 01:41:07;;;;;;;17.83;9.68;;;1.80;99.90;;;;;;5035682;28;20048;-67
2022/03/04 01:43:35;;;;;;;14.57;8.65;;;2.30;99.90;;;;;;5036517;28;20128;-68
2022/03/04 01:46:16;;;;;;;17.67;8.60;;;1.90;99.90;;;;;;5036522;28;20045;-69
2022/03/04 01:48:43;;;;;;;14.07;8.40;;;1.70;99.90;;;;;;5037173;28;20051;-68
2022/03/04 01:51:10;;;;;;;14.07;8.32;;;2.90;99.90;;;;;;5036191;28;20485;-69
2022/03/04 01:53:36;;;;;;;15.43;8.35;;;1.60;99.90;;;;;;5019030;28;20432;-68
2022/03/04 01:56:02;;;;;;;17.08;9.27;;;1.90;99.90;;;;;;5036297;28;20048;-69
2022/03/04 01:58:28;;;;;;;17.55;9.07;;;1.80;99.90;;;;;;5036347;28;20037;-68
2022/03/04 02:00:53;;;;;;;16.67;8.65;;;1.80;99.90;;;;;;5035464;28;20053;-68
2022/03/04 02:03:19;;;;;;;16.08;8.52;;;1.80;99.90;;;;;;5036269;28;20045;-68
2022/03/04 02:05:45;;;;;;;18.13;9.65;;;2.50;99.90;;;;;;5033790;28;20041;-68
2022/03/04 02:08:11;;;;;;;14.70;8.82;;;1.80;99.90;;;;;;5035680;28;20045;-68
2022/03/04 02:10:36;;;;;;;18.88;8.73;;;2.80;99.90;;;;;;5036050;28;20064;-68
2022/03/04 02:13:03;;;;;;;14.13;8.52;;;1.70;99.90;;;;;;5035123;28;20053;-68
2022/03/04 02:15:29;;;;;;;16.58;8.43;;;2.40;99.90;;;;;;5036004;28;20053;-68
2022/03/04 02:17:55;;;;;;;16.42;8.52;;;3.10;99.90;;;;;;5035912;28;20045;-69
2022/03/04 02:20:24;;;;;;;16.13;9.32;;;2.00;99.90;;;;;;5034893;28;20508;-68
2022/03/04 02:22:50;;;;;;;17.77;8.85;;;1.60;99.90;;;;;;5018560;28;20401;-68
2022/03/04 02:25:16;;;;;;;15.88;8.80;;;3.60;99.90;;;;;;5035936;28;20128;-69
2022/03/04 02:27:42;;;;;;;15.55;8.18;;;2.00;99.90;;;;;;5035739;28;20044;-68
2022/03/04 02:30:08;;;;;;;17.20;8.77;;;3.10;99.90;;;;;;5035682;28;20049;-69
2022/03/04 02:32:34;;;;;;;15.93;9.32;;;1.70;99.90;;;;;;5036027;28;20041;-69
2022/03/04 02:35:01;;;;;;;15.32;8.02;;;2.30;99.90;;;;;;5035179;28;20050;-68
2022/03/04 02:37:27;;;;;;;17.67;8.70;;;2.00;99.90;;;;;;5035526;28;20460;-69
2022/03/04 02:39:53;;;;;;;16.50;9.45;;;1.50;99.90;;;;;;5034524;28;20135;-69
2022/03/04 02:42:19;;;;;;;16.77;9.15;;;1.40;99.90;;;;;;5035161;28;20050;-69
2022/03/04 02:44:44;;;;;;;17.10;8.85;;;2.20;99.90;;;;;;5035455;28;20095;-69
2022/03/04 02:47:10;;;;;;;17.23;8.13;;;1.30;99.90;;;;;;5035438;28;20500;-69
2022/03/04 02:49:36;;;;;;;14.90;8.55;;;1.40;99.90;;;;;;5035369;28;20045;-68
2022/03/04 02:52:02;;;;;;;14.85;8.73;;;1.30;99.90;;;;;;5035279;28;20049;-69
2022/03/04 02:54:27;;;;;;;17.25;9.13;;;1.40;99.90;;;;;;5035228;28;20092;-68
2022/03/04 02:56:53;;;;;;;17.42;9.05;;;2.40;99.90;;;;;;5035192;28;20049;-69
2022/03/04 02:59:19;;;;;;;17.83;8.95;;;1.30;99.90;;;;;;5035192;28;20067;-69
2022/03/04 03:01:45;;;;;;;19.40;9.00;;;1.10;99.90;;;;;;5034802;28;20389;-69
2022/03/04 03:04:11;;;;;;;14.82;8.60;;;1.60;99.90;;;;;;5034178;28;20049;-69
2022/03/04 03:06:36;;;;;;;15.32;9.45;;;1.10;99.90;;;;;;5034616;28;20124;-69
2022/03/04 03:09:02;;;;;;;16.95;9.25;;;1.30;99.90;;;;;;5033851;28;20041;-69
2022/03/04 03:11:28;;;;;;;19.45;10.77;;;1.80;99.90;;;;;;5035033;28;20049;-69
2022/03/04 03:13:54;;;;;;;16.73;8.90;;;1.70;99.90;;;;;;5033626;28;20478;-68
2022/03/04 03:16:20;;;;;;;18.25;9.38;;;1.90;99.90;;;;;;5032985;28;20429;-69
2022/03/04 03:18:45;;;;;;;19.08;9.40;;;1.40;99.90;;;;;;5034740;28;20079;-69
2022/03/04 03:21:11;;;;;;;20.55;10.38;;;1.30;99.90;;;;;;5017544;28;20136;-69
2022/03/04 03:23:37;;;;;;;19.20;9.90;;;1.10;99.90;;;;;;5034681;28;20095;-69
2022/03/04 03:26:03;;;;;;;17.65;9.25;;;1.40;99.90;;;;;;5034660;28;20041;-69
2022/03/04 03:28:28;;;;;;;18.63;9.57;;;1.20;99.90;;;;;;5033622;28;20124;-69
2022/03/04 03:30:54;;;;;;;20.13;10.07;;;1.10;99.90;;;;;;5033556;28;20049;-68
2022/03/04 03:33:20;;;;;;;18.52;9.82;;;1.00;99.90;;;;;;5034489;28;20053;-69
2022/03/04 03:35:46;;;;;;;19.50;10.82;;;2.20;99.90;;;;;;5033968;28;20132;-68
2022/03/04 03:38:11;;;;;;;17.95;9.82;;;1.40;99.90;;;;;;5034495;28;20041;-69
2022/03/04 03:40:37;;;;;;;19.80;10.90;;;1.30;99.90;;;;;;5017370;28;20553;-69
2022/03/04 03:43:03;;;;;;;19.92;11.13;;;2.30;99.90;;;;;;5034366;28;20045;-68
2022/03/04 03:45:29;;;;;;;19.48;10.32;;;1.10;99.90;;;;;;5034709;28;20136;-68
2022/03/04 03:47:54;;;;;;;21.75;11.23;;;2.50;99.90;;;;;;5033958;28;20072;-69
2022/03/04 03:50:20;;;;;;;19.20;9.60;;;1.20;99.90;;;;;;5034270;28;20045;-68
2022/03/04 03:52:46;;;;;;;19.02;11.02;;;2.00;99.90;;;;;;5034260;28;20140;-68
2022/03/04 03:55:12;;;;;;;20.33;10.80;;;2.60;99.90;;;;;;5017247;28;20049;-69
2022/03/04 03:57:38;;;;;;;18.45;10.07;;;1.30;99.90;;;;;;5034056;28;20033;-68
2022/03/04 04:00:05;;;;;;;22.92;11.25;;;1.20;99.90;;;;;;5032939;28;20458;-68
2022/03/04 04:02:30;;;;;;;21.92;10.13;;;1.10;99.90;;;;;;5034237;28;20049;-68
2022/03/04 04:04:56;;;;;;;17.02;10.35;;;1.50;99.90;;;;;;5033555;28;20049;-68
2022/03/04 04:07:22;;;;;;;18.67;10.30;;;2.40;99.90;;;;;;5032718;28;20041;-69
2022/03/04 04:09:47;;;;;;;21.13;10.82;;;1.20;99.90;;;;;;5034131;28;20131;-69
2022/03/04 04:12:13;;;;;;;18.00;10.68;;;1.20;99.90;;;;;;5033872;28;20056;-68
2022/03/04 04:14:39;;;;;;;20.88;11.32;;;2.80;99.90;;;;;;5033837;28;20140;-68
2022/03/04 04:17:05;;;;;;;20.00;10.55;;;1.70;99.90;;;;;;5032355;28;20049;-69
2022/03/04 04:19:31;;;;;;;18.42;9.93;;;1.20;99.90;;;;;;5033738;28;20132;-69
2022/03/04 04:21:56;;;;;;;16.95;9.70;;;2.00;99.90;;;;;;5033419;28;20124;-68
2022/03/04 04:24:22;;;;;;;18.90;9.90;;;1.50;99.90;;;;;;5032580;28;20049;-68
2022/03/04 04:26:48;;;;;;;18.00;10.18;;;1.80;99.90;;;;;;5033658;28;20120;-68
2022/03/04 04:29:13;;;;;;;18.08;10.35;;;1.10;99.90;;;;;;5016405;28;20107;-68
2022/03/04 04:31:40;;;;;;;18.17;9.25;;;1.50;99.90;;;;;;5032283;28;20045;-68
2022/03/04 04:34:06;;;;;;;18.20;10.00;;;1.20;99.90;;;;;;5033637;28;20041;-69
2022/03/04 04:36:32;;;;;;;20.23;9.80;;;2.00;99.90;;;;;;5033020;28;20041;-68
2022/03/04 04:38:58;;;;;;;20.65;10.30;;;1.20;99.90;;;;;;5016305;28;20055;-68
2022/03/04 04:41:24;;;;;;;18.90;10.70;;;1.10;99.90;;;;;;5032423;28;20121;-68
2022/03/04 04:43:49;;;;;;;16.23;8.15;;;2.30;99.90;;;;;;5033427;28;20474;-68
2022/03/04 04:46:15;;;;;;;19.13;11.18;;;1.10;99.90;;;;;;5032606;28;20103;-68
2022/03/04 04:48:41;;;;;;;19.60;10.82;;;1.10;99.90;;;;;;5033587;28;20115;-69
2022/03/04 04:51:07;;;;;;;18.77;9.98;;;1.20;99.90;;;;;;5033420;28;20042;-69
2022/03/04 04:53:34;;;;;;;15.73;8.13;;;1.30;99.90;;;;;;5032202;28;20046;-68
2022/03/04 04:56:00;;;;;;;16.75;8.77;;;1.40;99.90;;;;;;5033271;28;20045;-69
2022/03/04 04:58:26;;;;;;;18.10;9.13;;;1.30;99.90;;;;;;5032149;28;20045;-69
2022/03/04 05:00:54;;;;;;;17.90;10.23;;;1.20;99.90;;;;;;5032132;28;20045;-68
2022/03/04 05:03:24;;;;;;;18.45;10.00;;;1.10;99.90;;;;;;5033846;28;20046;-68
2022/03/04 05:05:52;;;;;;;19.92;10.88;;;2.70;99.90;;;;;;5032745;28;20041;-68
2022/03/04 05:08:18;;;;;;;19.17;10.30;;;0.80;99.90;;;;;;5033293;28;20091;-69
2022/03/04 05:10:44;;;;;;;20.30;10.98;;;1.00;99.90;;;;;;5033259;28;20053;-68
2022/03/04 05:13:11;;;;;;;17.48;8.60;;;1.60;99.90;;;;;;5033344;28;20053;-69
2022/03/04 05:15:37;;;;;;;20.17;11.15;;;2.10;99.90;;;;;;5032888;28;20057;-69
2022/03/04 05:18:03;;;;;;;18.45;9.88;;;1.00;99.90;;;;;;5032384;28;20061;-69
2022/03/04 05:20:28;;;;;;;19.45;10.75;;;1.10;99.90;;;;;;5033119;28;20351;-69
2022/03/04 05:22:54;;;;;;;20.77;10.93;;;1.90;99.90;;;;;;5032332;28;20070;-69
2022/03/04 05:25:20;;;;;;;20.30;11.40;;;1.10;99.90;;;;;;5033066;28;20107;-68
2022/03/04 05:27:46;;;;;;;20.73;11.20;;;1.00;99.90;;;;;;5031778;28;20077;-69
2022/03/04 05:30:12;;;;;;;21.90;11.30;;;1.00;99.90;;;;;;5033256;28;20081;-68
2022/03/04 05:32:44;;;;;;;19.20;10.55;;;1.90;99.90;;;;;;5033051;28;20045;-68
2022/03/04 05:35:09;;;;;;;18.77;10.60;;;2.10;99.90;;;;;;5033096;28;20045;-68
2022/03/04 05:37:35;;;;;;;19.88;11.43;;;1.10;99.90;;;;;;5032281;28;20053;-68
2022/03/04 05:40:01;;;;;;;18.30;10.32;;;2.00;99.90;;;;;;5034327;28;20045;-69
2022/03/04 05:42:27;;;;;;;19.73;11.18;;;1.10;99.90;;;;;;5036785;28;20041;-69
2022/03/04 05:44:52;;;;;;;19.65;11.45;;;2.10;99.90;;;;;;5036631;28;20053;-68
2022/03/04 05:47:18;;;;;;;20.55;10.70;;;1.10;99.90;;;;;;5036573;28;20053;-68
2022/03/04 05:49:44;;;;;;;19.85;10.68;;;1.40;99.90;;;;;;5036333;28;20102;-68
2022/03/04 05:52:10;;;;;;;23.45;12.07;;;2.10;99.90;;;;;;5036320;28;20084;-69
2022/03/04 05:54:36;;;;;;;23.33;12.68;;;1.00;99.90;;;;;;5036494;28;20045;-68
2022/03/04 05:57:02;;;;;;;22.77;12.48;;;1.00;99.90;;;;;;5036298;28;20103;-69
2022/03/04 05:59:28;;;;;;;26.95;12.05;;;1.20;99.90;;;;;;5036349;28;20426;-68
2022/03/04 06:01:54;;;;;;;24.30;13.07;;;1.40;99.90;;;;;;5036234;28;20041;-68
2022/03/04 06:04:19;;;;;;;25.25;13.25;;;1.40;99.90;;;;;;5035244;28;20046;-68
2022/03/04 06:06:45;;;;;;;23.73;13.35;;;1.10;99.90;;;;;;5018135;28;20042;-68
2022/03/04 06:09:11;;;;;;;27.38;12.93;;;2.10;99.90;;;;;;5036168;28;20548;-68
2022/03/04 06:11:37;;;;;;;27.80;14.32;;;2.70;99.90;;;;;;5034875;28;20045;-68
2022/03/04 06:14:03;;;;;;;25.40;13.18;;;2.30;99.90;;;;;;5035122;28;20120;-68
2022/03/04 06:16:29;;;;;;;25.27;13.45;;;1.50;99.90;;;;;;5034521;28;20050;-68
2022/03/04 06:18:55;;;;;;;26.83;13.93;;;1.20;99.90;;;;;;5035600;28;20489;-68
2022/03/04 06:21:22;;;;;;;24.67;12.63;;;1.30;99.90;;;;;;5034416;28;20099;-68
2022/03/04 06:23:47;;;;;;;29.13;13.45;;;1.90;99.90;;;;;;5036360;28;20049;-68
2022/03/04 06:26:13;;;;;;;20.73;10.40;;;1.20;99.90;;;;;;5035836;28;20538;-69
2022/03/04 06:28:39;;;;;;;19.65;10.18;;;1.70;99.90;;;;;;5034583;28;20053;-69
2022/03/04 06:31:05;;;;;;;17.50;10.23;;;1.70;99.90;;;;;;5035479;28;20481;-68
2022/03/04 06:33:35;;;;;;;19.25;10.10;;;1.40;99.90;;;;;;5019122;28;20048;-69
2022/03/04 06:36:07;;;;;;;17.60;10.10;;;1.50;99.90;;;;;;5034966;28;20045;-68
2022/03/04 06:38:37;;;;;;;15.70;9.52;;;1.50;99.90;;;;;;5035972;28;20498;-68
2022/03/04 06:41:03;;;;;;;17.13;9.52;;;2.70;99.90;;;;;;5035997;28;20052;-69
2022/03/04 06:43:29;;;;;;;17.42;9.30;;;2.40;99.90;;;;;;5018041;28;20049;-69
2022/03/04 06:45:55;;;;;;;15.52;8.93;;;1.20;99.90;;;;;;5034262;28;20038;-68
2022/03/04 06:48:24;;;;;;;19.00;9.27;;;1.50;99.90;;;;;;5035398;28;20056;-69
2022/03/04 06:50:50;;;;;;;17.25;9.48;;;1.60;99.90;;;;;;5034788;28;20045;-69
2022/03/04 06:53:17;;;;;;;16.13;9.18;;;3.10;99.90;;;;;;5034383;28;20049;-68
2022/03/04 06:55:44;;;;;;;18.17;9.30;;;2.30;99.90;;;;;;5033630;28;20053;-69
2022/03/04 06:58:10;;;;;;;16.75;9.80;;;1.30;99.90;;;;;;5034016;28;20072;-69
2022/03/04 07:00:36;;;;;;;17.33;8.32;;;1.40;99.90;;;;;;5017643;28;20195;-68
2022/03/04 07:03:02;;;;;;;17.40;10.15;;;1.30;99.90;;;;;;5035128;28;20045;-69
2022/03/04 07:05:28;;;;;;;18.33;9.70;;;2.50;99.90;;;;;;5034542;28;20053;-68
2022/03/04 07:07:54;;;;;;;19.80;10.15;;;1.30;99.90;;;;;;5034025;28;20049;-68
2022/03/04 07:10:23;;;;;;;17.08;9.35;;;1.30;99.90;;;;;;5033848;28;20600;-69
2022/03/04 07:12:49;;;;;;;19.80;11.88;;;1.50;99.90;;;;;;5034954;28;20041;-69
2022/03/04 07:15:16;;;;;;;17.63;10.73;;;1.50;99.90;;;;;;5035067;28;20057;-68
2022/03/04 07:17:42;;;;;;;19.65;9.63;;;1.30;99.90;;;;;;5035202;28;20054;-69
2022/03/04 07:20:09;;;;;;;18.25;9.80;;;2.10;99.90;;;;;;5034818;28;20498;-69
2022/03/04 07:22:35;;;;;;;19.23;10.10;;;1.30;99.90;;;;;;5034754;28;20370;-69
2022/03/04 07:25:09;;;;;;;16.25;10.05;;;2.20;99.90;;;;;;5034741;28;20085;-69
2022/03/04 07:27:35;;;;;;;24.55;10.52;;;1.30;99.90;;;;;;5034768;28;20048;-68
2022/03/04 07:30:04;;;;;;;19.27;10.10;;;2.50;99.90;;;;;;5034619;28;20056;-69
2022/03/04 07:32:31;;;;;;;15.75;9.07;;;1.20;99.90;;;;;;5033335;28;20049;-68
2022/03/04 07:34:58;;;;;;;14.75;9.05;;;1.20;99.90;;;;;;5034558;28;20072;-68
2022/03/04 07:37:24;;;;;;;15.38;9.32;;;1.40;99.90;;;;;;5034461;28;20046;-68
2022/03/04 07:39:50;;;;;;;15.55;8.93;;;2.30;99.90;;;;;;5033487;28;20038;-68
2022/03/04 07:42:15;;;;;;;17.20;8.88;;;2.90;99.90;;;;;;5034465;28;20075;-68
2022/03/04 07:44:41;;;;;;;18.02;9.77;;;2.30;99.90;;;;;;5033487;28;20128;-68
2022/03/04 07:47:07;;;;;;;14.27;9.18;;;1.50;99.90;;;;;;5034297;28;20486;-69
2022/03/04 07:49:33;;;;;;;14.50;7.53;;;1.60;99.90;;;;;;5032971;28;20041;-69
2022/03/04 07:51:58;;;;;;;14.27;8.15;;;1.50;99.90;;;;;;5034359;28;20045;-69
2022/03/04 07:54:24;;;;;;;14.02;7.90;;;1.90;99.90;;;;;;5034129;28;20085;-69
2022/03/04 07:56:52;;;;;;;14.52;8.20;;;1.80;99.90;;;;;;5033998;28;20054;-68
2022/03/04 07:59:18;;;;;;;13.02;7.20;;;2.00;99.90;;;;;;5034102;28;20053;-69
2022/03/04 08:01:44;;;;;;;13.60;7.82;;;1.50;99.90;;;;;;5034002;28;20068;-69
2022/03/04 08:04:11;;;;;;;14.70;8.25;;;1.60;99.90;;;;;;5016243;28;20050;-68
2022/03/04 08:06:38;;;;;;;15.43;8.93;;;1.50;99.90;;;;;;5033323;28;20378;-68
2022/03/04 08:09:04;;;;;;;14.52;8.32;;;1.70;99.90;;;;;;5033989;28;20079;-68
2022/03/04 08:11:30;;;;;;;15.88;9.10;;;1.40;99.90;;;;;;5032938;28;20056;-68
2022/03/04 08:13:56;;;;;;;17.58;8.98;;;1.70;99.90;;;;;;5034133;28;20057;-68
2022/03/04 08:16:24;;;;;;;14.82;8.32;;;1.50;99.90;;;;;;5033958;28;20057;-68
2022/03/04 08:18:50;;;;;;;15.27;8.43;;;2.30;99.90;;;;;;5032698;28;20107;-69
2022/03/04 08:21:15;;;;;;;14.45;8.80;;;1.60;99.90;;;;;;5032954;28;20046;-69
2022/03/04 08:23:41;;;;;;;17.38;9.57;;;2.10;99.90;;;;;;5033871;28;20053;-69
2022/03/04 08:26:07;;;;;;;17.65;9.45;;;1.90;99.90;;;;;;5032876;28;20044;-69
2022/03/04 08:28:33;;;;;;;17.55;10.02;;;3.30;99.90;;;;;;5032948;28;20402;-68
2022/03/04 08:31:00;;;;;;;14.85;8.93;;;2.40;99.90;;;;;;5032823;28;20045;-68
2022/03/04 08:33:27;;;;;;;16.38;9.43;;;2.10;99.90;;;;;;5033803;28;20056;-68
2022/03/04 08:35:53;;;;;;;15.77;8.20;;;2.30;99.90;;;;;;5033190;28;20107;-68
2022/03/04 08:38:19;;;;;;;18.45;9.52;;;2.10;99.90;;;;;;5033967;28;20174;-68
2022/03/04 08:40:45;;;;;;;17.70;8.88;;;2.20;99.90;;;;;;5032985;28;20162;-68
2022/03/04 08:43:11;;;;;;;14.05;9.20;;;1.70;99.90;;;;;;5032713;28;20042;-68
2022/03/04 08:45:36;;;;;;;18.73;8.88;;;1.80;99.90;;;;;;5033647;28;20045;-68
2022/03/04 08:48:06;;;;;;;15.30;8.43;;;2.10;99.90;;;;;;5032468;28;20136;-69
2022/03/04 08:50:34;;;;;;;18.70;9.52;;;1.90;99.90;;;;;;5031780;28;20045;-69
2022/03/04 08:53:01;;;;;;;16.58;9.32;;;2.10;99.90;;;;;;5033035;28;20059;-70
2022/03/04 08:55:28;;;;;;;18.92;10.07;;;2.90;99.90;;;;;;5028439;28;20053;-68
2022/03/04 08:57:53;;;;;;;17.60;9.20;;;1.80;99.90;;;;;;5028160;28;20124;-68
2022/03/04 09:00:19;;;;;;;14.77;9.18;;;1.90;99.90;;;;;;5023733;28;20128;-68
2022/03/04 09:02:45;;;;;;;19.10;10.25;;;2.30;99.90;;;;;;5027460;28;20045;-68
2022/03/04 09:05:11;;;;;;;15.55;8.75;;;2.30;99.90;;;;;;5022189;28;20056;-68
2022/03/04 09:07:37;;;;;;;16.70;8.55;;;2.30;99.90;;;;;;5028924;28;20046;-68
2022/03/04 09:10:04;;;;;;;15.93;8.55;;;2.20;99.90;;;;;;5025619;28;20049;-68
2022/03/04 09:12:30;;;;;;;14.75;8.15;;;2.10;99.90;;;;;;5025731;28;20049;-68
2022/03/04 09:14:56;;;;;;;14.82;7.32;;;2.30;99.90;;;;;;5028171;28;20140;-68
2022/03/04 09:17:22;;;;;;;15.73;7.65;;;2.30;99.90;;;;;;5032087;28;20132;-69
2022/03/04 09:19:48;;;;;;;12.13;6.75;;;4.00;99.90;;;;;;5031926;28;20049;-69
2022/03/04 09:22:15;;;;;;;13.80;7.60;;;2.80;99.90;;;;;;5036017;28;20050;-68
2022/03/04 09:24:40;;;;;;;14.90;8.25;;;2.60;99.90;;;;;;5036571;28;20133;-68
2022/03/04 09:27:07;;;;;;;14.52;8.65;;;3.60;99.90;;;;;;5037128;28;20493;-69
2022/03/04 09:29:34;;;;;;;14.00;7.53;;;2.60;99.90;;;;;;5037016;28;20053;-68
2022/03/04 09:32:00;;;;;;;14.48;8.10;;;3.30;99.90;;;;;;5037026;28;20045;-68
2022/03/04 09:34:26;;;;;;;14.73;7.30;;;2.70;99.90;;;;;;5035925;28;20103;-68
2022/03/04 09:36:52;;;;;;;14.18;8.13;;;3.00;99.90;;;;;;5036385;28;20107;-68
2022/03/04 09:39:17;;;;;;;12.32;8.15;;;3.00;99.90;;;;;;5036855;28;20442;-69
2022/03/04 09:41:46;;;;;;;13.82;7.40;;;2.90;99.90;;;;;;5036777;28;20481;-68
2022/03/04 09:44:13;;;;;;;14.40;7.97;;;3.20;99.90;;;;;;5035816;28;20053;-68
2022/03/04 09:46:43;;;;;;;13.38;7.82;;;3.20;99.90;;;;;;5036804;28;20124;-68
2022/03/04 09:49:12;;;;;;;12.90;6.68;;;3.30;99.90;;;;;;5036744;28;20049;-68
2022/03/04 09:51:38;;;;;;;12.40;6.80;;;3.20;99.90;;;;;;5019265;28;20047;-68
2022/03/04 09:54:04;;;;;;;12.35;6.97;;;3.20;99.90;;;;;;5019080;28;20057;-68
2022/03/04 09:56:29;;;;;;;13.00;7.05;;;3.20;99.90;;;;;;5036792;28;20046;-69
2022/03/04 09:58:55;;;;;;;12.35;6.72;;;4.00;99.90;;;;;;5034960;28;20100;-68
2022/03/04 10:01:21;;;;;;;13.15;7.28;;;4.00;99.90;;;;;;5036682;28;20049;-68
2022/03/04 10:03:48;;;;;;;13.27;7.05;;;3.50;99.90;;;;;;5036432;28;20127;-69
2022/03/04 10:06:14;;;;;;;13.70;7.13;;;3.50;99.90;;;;;;5035860;28;20080;-70
2022/03/04 10:08:52;;;;;;;13.77;6.45;;;4.00;99.90;;;;;;5036334;28;20128;-69
2022/03/04 10:11:44;;;;;;;14.00;7.32;;;3.70;99.90;;;;;;5036447;28;20045;-69
2022/03/04 10:14:13;;;;;;;15.20;7.90;;;3.90;99.90;;;;;;5032350;28;20096;-69
2022/03/04 10:16:41;;;;;;;13.43;7.63;;;3.60;99.90;;;;;;5035768;28;20061;-68
2022/03/04 10:19:15;;;;;;;14.73;7.90;;;3.90;99.90;;;;;;5036095;28;20041;-68
2022/03/04 10:21:52;;;;;;;10.63;5.90;;;3.90;99.90;;;;;;5036102;28;20089;-67
2022/03/04 10:24:21;;;;;;;14.55;7.30;;;4.00;99.90;;;;;;5036027;28;20049;-66
2022/03/04 10:26:47;;;;;;;13.45;7.25;;;4.80;99.90;;;;;;5035718;28;20037;-67
2022/03/04 10:29:24;;;;;;;14.25;6.72;;;4.20;99.90;;;;;;5035013;28;20053;-66
2022/03/04 10:32:13;;;;;;;13.55;7.50;;;4.10;99.90;;;;;;5035853;28;20041;-66
2022/03/04 10:34:47;;;;;;;13.10;7.05;;;4.20;99.90;;;;;;5035888;28;20072;-66
2022/03/04 10:37:15;;;;;;;13.30;7.10;;;4.30;99.90;;;;;;5035366;28;20072;-66
2022/03/04 10:39:59;;;;;;;12.65;7.18;;;4.30;99.90;;;;;;5035808;28;20095;-67
2022/03/04 10:42:54;;;;;;;14.90;7.30;;;4.60;99.90;;;;;;5034428;28;20053;-66
2022/03/04 10:45:33;;;;;;;13.60;6.63;;;4.40;99.90;;;;;;5035658;28;20053;-66
2022/03/04 10:48:10;;;;;;;12.57;6.68;;;4.60;99.90;;;;;;5034666;28;20057;-67
2022/03/04 10:50:38;;;;;;;12.05;6.82;;;4.60;99.90;;;;;;5035734;28;20049;-66
2022/03/04 10:53:11;;;;;;;15.25;6.50;;;4.60;99.90;;;;;;5034538;28;20038;-67
2022/03/04 10:55:40;;;;;;;12.38;7.15;;;4.70;99.90;;;;;;5035596;28;20053;-67
2022/03/04 10:58:13;;;;;;;12.93;7.20;;;4.90;99.90;;;;;;5035301;28;20037;-66
2022/03/04 11:00:48;;;;;;;14.18;7.13;;;5.00;99.90;;;;;;5035853;28;20144;-67
2022/03/04 11:03:34;;;;;;;13.65;7.38;;;4.90;99.90;;;;;;5035399;28;20091;-66
2022/03/04 11:06:06;;;;;;;13.88;7.95;;;5.00;99.90;;;;;;5034913;28;20164;-68
2022/03/04 11:08:32;;;;;;;13.00;7.53;;;5.00;99.90;;;;;;5035314;28;20053;-69
2022/03/04 11:10:59;;;;;;;14.55;7.47;;;5.20;99.90;;;;;;5033896;28;20056;-68
2022/03/04 11:13:25;;;;;;;14.88;8.02;;;5.20;99.90;;;;;;5035189;28;20096;-68
2022/03/04 11:15:53;;;;;;;15.02;7.63;;;5.20;99.90;;;;;;5034925;28;20477;-68
2022/03/04 11:18:21;;;;;;;16.35;8.73;;;5.30;99.90;;;;;;5033808;28;20108;-69
2022/03/04 11:20:52;;;;;;;14.32;7.45;;;5.30;99.90;;;;;;5034970;28;20049;-68
2022/03/04 11:23:26;;;;;;;12.93;6.95;;;5.30;99.90;;;;;;5033828;28;20049;-69
2022/03/04 11:26:04;;;;;;;14.63;7.93;;;5.30;99.90;;;;;;5034921;28;20133;-68
2022/03/04 11:28:44;;;;;;;12.52;7.55;;;5.30;99.90;;;;;;5033989;28;20103;-68
2022/03/04 11:31:12;;;;;;;17.50;8.48;;;5.50;99.90;;;;;;5034121;28;20053;-68
2022/03/04 11:33:51;;;;;;;14.30;7.72;;;5.50;99.90;;;;;;5034025;28;20097;-68
2022/03/04 11:36:22;;;;;;;15.82;8.63;;;5.50;99.90;;;;;;5034214;28;20053;-68
2022/03/04 11:38:48;;;;;;;13.95;7.30;;;5.30;99.90;;;;;;5017169;28;20140;-69
2022/03/04 11:41:19;;;;;;;13.90;8.27;;;5.50;99.90;;;;;;5034656;28;20129;-68
2022/03/04 11:43:50;;;;;;;11.52;6.93;;;5.40;99.90;;;;;;5033357;28;20046;-68
2022/03/04 11:46:27;;;;;;;12.63;6.60;;;5.70;99.90;;;;;;5034709;28;20046;-69
2022/03/04 11:49:35;;;;;;;10.43;6.20;;;5.70;99.90;;;;;;5034607;28;20393;-69
2022/03/04 11:52:10;;;;;;;12.05;6.82;;;5.70;99.90;;;;;;4992736;28;20101;-69
2022/03/04 11:54:37;;;;;;;12.35;7.07;;;5.70;99.90;;;;;;5030266;28;20057;-69
2022/03/04 11:57:27;;;;;;;14.02;6.97;;;5.50;99.90;;;;;;5024211;28;20128;-68
2022/03/04 11:59:57;;;;;;;13.48;7.85;;;5.70;99.90;;;;;;5026724;28;20046;-68
2022/03/04 12:02:26;;;;;;;11.95;7.10;;;5.70;99.90;;;;;;5028603;28;20060;-69
2022/03/04 12:05:22;;;;;;;11.43;6.63;;;5.90;99.90;;;;;;5023478;28;20501;-68
2022/03/04 12:07:50;;;;;;;12.13;6.90;;;5.80;99.90;;;;;;5025010;28;20297;-68
2022/03/04 12:10:24;;;;;;;13.32;8.10;;;6.40;99.90;;;;;;5025606;28;20037;-66
2022/03/04 12:13:01;;;;;;;11.93;7.45;;;6.10;99.90;;;;;;5023355;28;20353;-67
2022/03/04 12:15:35;;;;;;;12.68;7.00;;;5.90;99.90;;;;;;5026725;28;20057;-66
2022/03/04 12:18:20;;;;;;;13.40;7.82;;;6.00;99.90;;;;;;5020521;28;20095;-66
2022/03/04 12:20:46;;;;;;;11.32;7.63;;;5.90;99.90;;;;;;5037899;28;20049;-67
2022/03/04 12:23:17;;;;;;;12.15;6.85;;;6.00;99.90;;;;;;5028063;28;20064;-66
2022/03/04 12:25:55;;;;;;;13.30;6.35;;;6.20;99.90;;;;;;5022162;28;20049;-67
2022/03/04 12:28:54;;;;;;;9.63;5.43;;;6.20;99.90;;;;;;5026206;28;20045;-67
2022/03/04 12:31:24;;;;;;;10.48;5.78;;;6.10;99.90;;;;;;5001273;28;20534;-67
2022/03/04 12:33:56;;;;;;;11.82;6.05;;;6.80;99.90;;;;;;5022495;28;20063;-67
2022/03/04 12:36:28;;;;;;;10.48;5.75;;;6.20;99.90;;;;;;5025235;28;20057;-67
2022/03/04 12:38:58;;;;;;;10.15;5.70;;;6.30;99.90;;;;;;5028214;28;20504;-67
2022/03/04 12:41:27;;;;;;;9.18;5.95;;;6.20;99.90;;;;;;5024929;28;20099;-67
2022/03/04 12:43:58;;;;;;;10.82;6.32;;;6.30;99.90;;;;;;5026054;28;20045;-66
2022/03/04 12:46:26;;;;;;;12.60;6.70;;;6.30;99.90;;;;;;5027763;28;20038;-67
2022/03/04 12:48:53;;;;;;;10.88;6.25;;;6.40;99.90;;;;;;5025445;28;20080;-67